sensor_id;sensor_type;location;lat;lon;timestamp;pressure;altitude;pressure_sealevel;temperature;humidity
57248;BME280;55809;46.618;10.764;2023-02-14T00:01:43;94599.72;;;1.09;58.41
57248;BME280;55809;46.618;10.764;2023-02-14T00:04:19;94609.53;;;0.95;58.82
57248;BME280;55809;46.618;10.764;2023-02-14T00:07:20;94602.66;;;0.94;59.67
57248;BME280;55809;46.618;10.764;2023-02-14T00:10:22;94609.66;;;1.04;58.81
57248;BME280;55809;46.618;10.764;2023-02-14T00:16:23;94684.75;;;1.64;58.45
57248;BME280;55809;46.618;10.764;2023-02-14T00:19:15;94680.41;;;1.69;58.46
57248;BME280;55809;46.618;10.764;2023-02-14T00:22:21;94584.44;;;1.01;57.86
57248;BME280;55809;46.618;10.764;2023-02-14T00:24:57;94652.34;;;1.62;58.84
57248;BME280;55809;46.618;10.764;2023-02-14T00:27:40;94706.94;;;2.10;58.60
57248;BME280;55809;46.618;10.764;2023-02-14T00:30:19;94698.84;;;2.15;58.55
57248;BME280;55809;46.618;10.764;2023-02-14T00:33:18;94624.72;;;1.72;58.25
57248;BME280;55809;46.618;10.764;2023-02-14T00:39:21;94651.16;;;1.69;59.30
57248;BME280;55809;46.618;10.764;2023-02-14T00:42:00;94697.97;;;2.06;60.13
57248;BME280;55809;46.618;10.764;2023-02-14T00:44:37;94579.78;;;1.21;60.75
57248;BME280;55809;46.618;10.764;2023-02-14T00:47:20;94594.56;;;1.27;60.34
57248;BME280;55809;46.618;10.764;2023-02-14T00:50:04;94573.41;;;1.08;60.11
57248;BME280;55809;46.618;10.764;2023-02-14T00:52:42;94706.28;;;2.04;60.05
57248;BME280;55809;46.618;10.764;2023-02-14T00:55:16;94626.34;;;1.46;60.34
57248;BME280;55809;46.618;10.764;2023-02-14T00:57:56;94644.75;;;1.56;60.03
57248;BME280;55809;46.618;10.764;2023-02-14T01:00:39;94583.47;;;0.97;60.13
57248;BME280;55809;46.618;10.764;2023-02-14T01:03:25;94645.78;;;1.32;60.32
57248;BME280;55809;46.618;10.764;2023-02-14T01:06:09;94577.84;;;0.85;60.65
57248;BME280;55809;46.618;10.764;2023-02-14T01:08:53;94678.78;;;1.45;60.83
57248;BME280;55809;46.618;10.764;2023-02-14T01:11:26;94694.03;;;1.53;61.37
57248;BME280;55809;46.618;10.764;2023-02-14T01:16:55;94639.38;;;0.92;61.71
57248;BME280;55809;46.618;10.764;2023-02-14T01:19:43;94707.34;;;1.39;61.75
57248;BME280;55809;46.618;10.764;2023-02-14T01:22:28;94658.47;;;1.22;60.98
57248;BME280;55809;46.618;10.764;2023-02-14T01:25:11;94581.88;;;0.68;60.45
57248;BME280;55809;46.618;10.764;2023-02-14T01:28:13;94604.41;;;0.99;60.21
57248;BME280;55809;46.618;10.764;2023-02-14T01:31:15;94555.13;;;0.65;60.61
57248;BME280;55809;46.618;10.764;2023-02-14T01:33:50;94548.03;;;0.60;60.66
57248;BME280;55809;46.618;10.764;2023-02-14T01:36:28;94594.88;;;0.98;60.17
57248;BME280;55809;46.618;10.764;2023-02-14T01:39:06;94561.50;;;0.91;60.41
57248;BME280;55809;46.618;10.764;2023-02-14T01:41:45;94682.88;;;1.79;60.26
57248;BME280;55809;46.618;10.764;2023-02-14T01:45:07;94691.31;;;1.81;59.19
57248;BME280;55809;46.618;10.764;2023-02-14T01:48:03;94644.84;;;1.51;59.05
57248;BME280;55809;46.618;10.764;2023-02-14T01:50:53;94561.72;;;0.81;59.59
57248;BME280;55809;46.618;10.764;2023-02-14T01:53:53;94562.00;;;0.93;59.35
57248;BME280;55809;46.618;10.764;2023-02-14T01:56:48;94550.59;;;0.93;59.07
57248;BME280;55809;46.618;10.764;2023-02-14T01:59:39;94559.84;;;0.96;59.08
57248;BME280;55809;46.618;10.764;2023-02-14T02:02:51;94584.31;;;1.20;58.53
57248;BME280;55809;46.618;10.764;2023-02-14T02:05:29;94669.13;;;1.85;58.68
57248;BME280;55809;46.618;10.764;2023-02-14T02:08:12;94596.72;;;1.25;59.39
57248;BME280;55809;46.618;10.764;2023-02-14T02:10:43;94542.63;;;0.93;58.43
57248;BME280;55809;46.618;10.764;2023-02-14T02:13:26;94654.50;;;1.60;59.01
57248;BME280;55809;46.618;10.764;2023-02-14T02:16:10;94538.38;;;0.78;59.02
57248;BME280;55809;46.618;10.764;2023-02-14T02:22:28;94537.69;;;0.86;57.97
57248;BME280;55809;46.618;10.764;2023-02-14T02:25:19;94532.34;;;1.00;57.61
57248;BME280;55809;46.618;10.764;2023-02-14T02:28:18;94532.34;;;1.00;57.37
57248;BME280;55809;46.618;10.764;2023-02-14T02:31:52;94660.91;;;1.96;56.72
57248;BME280;55809;46.618;10.764;2023-02-14T02:38:27;94575.63;;;1.28;56.85
57248;BME280;55809;46.618;10.764;2023-02-14T02:41:25;94536.00;;;1.04;56.54
57248;BME280;55809;46.618;10.764;2023-02-14T02:44:28;94539.53;;;1.13;56.49
57248;BME280;55809;46.618;10.764;2023-02-14T02:47:23;94526.84;;;0.97;56.99
57248;BME280;55809;46.618;10.764;2023-02-14T02:56:34;94529.91;;;0.90;57.27
57248;BME280;55809;46.618;10.764;2023-02-14T02:59:28;94570.22;;;1.33;56.88
57248;BME280;55809;46.618;10.764;2023-02-14T03:02:22;94568.84;;;1.36;56.97
57248;BME280;55809;46.618;10.764;2023-02-14T03:05:06;94641.22;;;1.83;57.60
57248;BME280;55809;46.618;10.764;2023-02-14T03:07:57;94532.53;;;1.04;57.57
57248;BME280;55809;46.618;10.764;2023-02-14T03:10:38;94622.28;;;1.62;56.75
57248;BME280;55809;46.618;10.764;2023-02-14T03:16:45;94601.63;;;1.31;56.86
57248;BME280;55809;46.618;10.764;2023-02-14T03:19:46;94535.44;;;0.80;56.90
57248;BME280;55809;46.618;10.764;2023-02-14T03:22:47;94592.41;;;1.15;56.83
57248;BME280;55809;46.618;10.764;2023-02-14T03:25:50;94527.50;;;0.66;56.92
57248;BME280;55809;46.618;10.764;2023-02-14T03:28:54;94520.69;;;0.60;57.07
57248;BME280;55809;46.618;10.764;2023-02-14T03:31:52;94614.94;;;1.17;57.02
57248;BME280;55809;46.618;10.764;2023-02-14T03:34:54;94628.94;;;1.23;56.76
57248;BME280;55809;46.618;10.764;2023-02-14T03:38:06;94634.09;;;1.06;57.04
57248;BME280;55809;46.618;10.764;2023-02-14T03:41:34;94533.88;;;0.37;57.44
57248;BME280;55809;46.618;10.764;2023-02-14T03:44:25;94627.66;;;1.07;57.11
57248;BME280;55809;46.618;10.764;2023-02-14T03:47:26;94640.47;;;1.19;56.80
57248;BME280;55809;46.618;10.764;2023-02-14T03:53:27;94543.50;;;0.47;56.54
57248;BME280;55809;46.618;10.764;2023-02-14T03:56:39;94531.59;;;0.31;56.31
57248;BME280;55809;46.618;10.764;2023-02-14T03:59:30;94548.50;;;0.35;57.04
57248;BME280;55809;46.618;10.764;2023-02-14T04:05:35;94536.22;;;0.25;57.52
57248;BME280;55809;46.618;10.764;2023-02-14T04:08:48;94551.75;;;0.45;57.25
57248;BME280;55809;46.618;10.764;2023-02-14T04:12:09;94525.31;;;0.27;57.77
57248;BME280;55809;46.618;10.764;2023-02-14T04:16:04;94521.06;;;0.26;57.55
57248;BME280;55809;46.618;10.764;2023-02-14T04:19:01;94503.16;;;0.17;57.39
57248;BME280;55809;46.618;10.764;2023-02-14T04:21:53;94539.38;;;0.41;57.48
57248;BME280;55809;46.618;10.764;2023-02-14T04:24:45;94556.50;;;0.49;57.24
57248;BME280;55809;46.618;10.764;2023-02-14T04:27:36;94534.16;;;0.36;57.23
57248;BME280;55809;46.618;10.764;2023-02-14T04:30:38;94544.50;;;0.37;56.81
57248;BME280;55809;46.618;10.764;2023-02-14T04:33:32;94530.03;;;0.30;56.85
57248;BME280;55809;46.618;10.764;2023-02-14T04:37:15;94527.66;;;0.28;56.85
57248;BME280;55809;46.618;10.764;2023-02-14T04:40:09;94572.81;;;0.56;57.13
57248;BME280;55809;46.618;10.764;2023-02-14T04:43:07;94578.44;;;0.68;55.84
57248;BME280;55809;46.618;10.764;2023-02-14T04:49:27;94553.94;;;0.57;56.14
57248;BME280;55809;46.618;10.764;2023-02-14T04:52:14;94643.81;;;1.24;55.51
57248;BME280;55809;46.618;10.764;2023-02-14T04:54:55;94521.28;;;0.57;55.15
57248;BME280;55809;46.618;10.764;2023-02-14T04:57:25;94638.75;;;1.50;54.91
57248;BME280;55809;46.618;10.764;2023-02-14T04:59:52;94651.38;;;1.45;55.61
57248;BME280;55809;46.618;10.764;2023-02-14T05:02:20;94649.59;;;1.40;56.05
57248;BME280;55809;46.618;10.764;2023-02-14T05:04:48;94652.56;;;1.38;56.14
57248;BME280;55809;46.618;10.764;2023-02-14T05:07:15;94654.94;;;1.40;56.44
57248;BME280;55809;46.618;10.764;2023-02-14T05:09:43;94656.31;;;1.37;56.14
57248;BME280;55809;46.618;10.764;2023-02-14T05:12:10;94633.28;;;1.19;55.98
57248;BME280;55809;46.618;10.764;2023-02-14T05:14:36;94643.34;;;1.22;56.14
57248;BME280;55809;46.618;10.764;2023-02-14T05:17:06;94605.31;;;0.94;56.20
57248;BME280;55809;46.618;10.764;2023-02-14T05:19:32;94613.78;;;0.82;56.25
57248;BME280;55809;46.618;10.764;2023-02-14T05:22:01;94645.91;;;1.00;56.67
57248;BME280;55809;46.618;10.764;2023-02-14T05:24:28;94647.47;;;1.14;55.73
57248;BME280;55809;46.618;10.764;2023-02-14T05:26:55;94620.09;;;0.86;56.01
57248;BME280;55809;46.618;10.764;2023-02-14T05:29:22;94649.63;;;1.12;55.79
57248;BME280;55809;46.618;10.764;2023-02-14T05:31:49;94596.38;;;0.76;56.18
57248;BME280;55809;46.618;10.764;2023-02-14T05:34:16;94649.06;;;1.15;56.32
57248;BME280;55809;46.618;10.764;2023-02-14T05:36:44;94631.50;;;1.14;56.26
57248;BME280;55809;46.618;10.764;2023-02-14T05:39:12;94574.91;;;0.86;56.28
57248;BME280;55809;46.618;10.764;2023-02-14T05:41:39;94655.25;;;1.38;56.77
57248;BME280;55809;46.618;10.764;2023-02-14T05:44:06;94602.56;;;1.13;56.95
57248;BME280;55809;46.618;10.764;2023-02-14T05:46:35;94654.34;;;1.43;56.07
57248;BME280;55809;46.618;10.764;2023-02-14T05:49:02;94581.19;;;0.90;55.80
57248;BME280;55809;46.618;10.764;2023-02-14T05:51:29;94637.13;;;1.13;56.31
57248;BME280;55809;46.618;10.764;2023-02-14T05:53:56;94642.53;;;1.22;56.08
57248;BME280;55809;46.618;10.764;2023-02-14T05:56:26;94655.72;;;1.27;55.82
57248;BME280;55809;46.618;10.764;2023-02-14T05:58:53;94651.88;;;1.33;55.61
57248;BME280;55809;46.618;10.764;2023-02-14T06:01:20;94638.09;;;1.31;55.32
57248;BME280;55809;46.618;10.764;2023-02-14T06:03:47;94655.72;;;1.40;55.65
57248;BME280;55809;46.618;10.764;2023-02-14T06:06:14;94617.91;;;1.16;56.08
57248;BME280;55809;46.618;10.764;2023-02-14T06:08:41;94600.31;;;1.06;56.15
57248;BME280;55809;46.618;10.764;2023-02-14T06:11:08;94605.03;;;1.09;56.09
57248;BME280;55809;46.618;10.764;2023-02-14T06:13:36;94648.91;;;1.48;55.03
57248;BME280;55809;46.618;10.764;2023-02-14T06:16:06;94652.38;;;1.49;55.04
57248;BME280;55809;46.618;10.764;2023-02-14T06:18:32;94611.13;;;1.10;54.92
57248;BME280;55809;46.618;10.764;2023-02-14T06:20:59;94671.28;;;1.47;54.98
57248;BME280;55809;46.618;10.764;2023-02-14T06:23:27;94661.63;;;1.37;55.00
57248;BME280;55809;46.618;10.764;2023-02-14T06:25:54;94673.47;;;1.45;54.99
57248;BME280;55809;46.618;10.764;2023-02-14T06:28:21;94673.94;;;1.47;55.08
57248;BME280;55809;46.618;10.764;2023-02-14T06:30:49;94670.50;;;1.47;55.64
57248;BME280;55809;46.618;10.764;2023-02-14T06:33:16;94669.91;;;1.50;55.33
57248;BME280;55809;46.618;10.764;2023-02-14T06:35:44;94672.38;;;1.46;55.70
57248;BME280;55809;46.618;10.764;2023-02-14T06:38:11;94672.25;;;1.51;55.18
57248;BME280;55809;46.618;10.764;2023-02-14T06:40:37;94611.22;;;1.05;55.10
57248;BME280;55809;46.618;10.764;2023-02-14T06:43:04;94661.44;;;1.20;55.16
57248;BME280;55809;46.618;10.764;2023-02-14T06:45:31;94675.25;;;1.22;55.49
57248;BME280;55809;46.618;10.764;2023-02-14T06:48:00;94682.72;;;1.20;55.75
57248;BME280;55809;46.618;10.764;2023-02-14T06:50:28;94678.97;;;1.21;55.65
57248;BME280;55809;46.618;10.764;2023-02-14T06:52:55;94586.59;;;0.44;55.78
57248;BME280;55809;46.618;10.764;2023-02-14T06:55:22;94686.69;;;1.09;56.37
57248;BME280;55809;46.618;10.764;2023-02-14T06:57:49;94682.22;;;1.18;56.50
57248;BME280;55809;46.618;10.764;2023-02-14T07:00:17;94623.03;;;0.99;55.90
57248;BME280;55809;46.618;10.764;2023-02-14T07:02:44;94680.31;;;1.60;53.71
57248;BME280;55809;46.618;10.764;2023-02-14T07:05:13;94675.56;;;1.71;53.73
57248;BME280;55809;46.618;10.764;2023-02-14T07:07:43;94676.97;;;1.68;53.52
57248;BME280;55809;46.618;10.764;2023-02-14T07:10:11;94671.25;;;1.75;53.56
57248;BME280;55809;46.618;10.764;2023-02-14T07:12:38;94691.13;;;1.77;53.77
57248;BME280;55809;46.618;10.764;2023-02-14T07:15:05;94655.03;;;1.49;54.02
57248;BME280;55809;46.618;10.764;2023-02-14T07:17:32;94687.22;;;1.75;53.65
57248;BME280;55809;46.618;10.764;2023-02-14T07:20:00;94680.97;;;1.79;53.55
57248;BME280;55809;46.618;10.764;2023-02-14T07:22:28;94679.94;;;2.03;52.86
57248;BME280;55809;46.618;10.764;2023-02-14T07:24:55;94678.69;;;2.45;51.42
57248;BME280;55809;46.618;10.764;2023-02-14T07:27:22;94677.00;;;2.80;50.38
57248;BME280;55809;46.618;10.764;2023-02-14T07:29:49;94672.31;;;3.17;49.38
57248;BME280;55809;46.618;10.764;2023-02-14T07:32:17;94681.97;;;3.44;48.61
57248;BME280;55809;46.618;10.764;2023-02-14T07:34:44;94679.16;;;3.58;48.22
57248;BME280;55809;46.618;10.764;2023-02-14T07:37:12;94663.97;;;3.67;47.95
57248;BME280;55809;46.618;10.764;2023-02-14T07:39:40;94677.38;;;4.02;47.76
57248;BME280;55809;46.618;10.764;2023-02-14T07:42:07;94673.44;;;4.26;46.98
57248;BME280;55809;46.618;10.764;2023-02-14T07:44:35;94684.13;;;4.52;46.75
57248;BME280;55809;46.618;10.764;2023-02-14T07:47:03;94647.28;;;4.57;45.74
57248;BME280;55809;46.618;10.764;2023-02-14T07:49:30;94666.09;;;4.96;45.33
57248;BME280;55809;46.618;10.764;2023-02-14T07:51:57;94678.56;;;5.30;44.05
57248;BME280;55809;46.618;10.764;2023-02-14T07:54:24;94631.59;;;5.32;43.07
57248;BME280;55809;46.618;10.764;2023-02-14T07:56:53;94672.41;;;5.88;43.03
57248;BME280;55809;46.618;10.764;2023-02-14T07:59:20;94668.03;;;6.14;42.12
57248;BME280;55809;46.618;10.764;2023-02-14T08:01:48;94664.16;;;6.23;40.60
57248;BME280;55809;46.618;10.764;2023-02-14T08:04:15;94602.25;;;5.95;40.48
57248;BME280;55809;46.618;10.764;2023-02-14T08:06:42;94627.94;;;6.17;40.37
57248;BME280;55809;46.618;10.764;2023-02-14T08:09:09;94662.09;;;6.62;39.83
57248;BME280;55809;46.618;10.764;2023-02-14T08:11:49;94660.91;;;6.84;39.41
57248;BME280;55809;46.618;10.764;2023-02-14T08:14:35;94632.88;;;6.94;38.75
57248;BME280;55809;46.618;10.764;2023-02-14T08:17:09;94593.41;;;6.94;38.70
57248;BME280;55809;46.618;10.764;2023-02-14T08:19:43;94591.19;;;7.21;38.08
57248;BME280;55809;46.618;10.764;2023-02-14T08:22:10;94583.00;;;7.54;38.28
57248;BME280;55809;46.618;10.764;2023-02-14T08:24:37;94646.19;;;8.01;39.29
57248;BME280;55809;46.618;10.764;2023-02-14T08:27:04;94645.44;;;7.88;39.76
57248;BME280;55809;46.618;10.764;2023-02-14T08:29:31;94654.25;;;8.01;38.78
57248;BME280;55809;46.618;10.764;2023-02-14T08:32:00;94630.09;;;7.76;38.74
57248;BME280;55809;46.618;10.764;2023-02-14T08:34:27;94620.97;;;7.93;38.54
57248;BME280;55809;46.618;10.764;2023-02-14T08:36:54;94604.50;;;8.07;37.25
57248;BME280;55809;46.618;10.764;2023-02-14T08:39:21;94544.53;;;7.78;37.91
57248;BME280;55809;46.618;10.764;2023-02-14T08:41:48;94600.25;;;8.34;38.26
57248;BME280;55809;46.618;10.764;2023-02-14T08:44:15;94575.06;;;8.26;37.09
57248;BME280;55809;46.618;10.764;2023-02-14T08:46:42;94631.19;;;8.68;36.46
57248;BME280;55809;46.618;10.764;2023-02-14T08:49:11;94635.31;;;8.93;36.80
57248;BME280;55809;46.618;10.764;2023-02-14T08:51:38;94549.59;;;8.36;36.20
57248;BME280;55809;46.618;10.764;2023-02-14T08:54:05;94623.50;;;9.14;36.56
57248;BME280;55809;46.618;10.764;2023-02-14T08:56:32;94545.84;;;8.84;34.69
57248;BME280;55809;46.618;10.764;2023-02-14T08:59:00;94631.31;;;9.67;34.28
57248;BME280;55809;46.618;10.764;2023-02-14T09:01:29;94590.78;;;9.63;34.22
57248;BME280;55809;46.618;10.764;2023-02-14T09:03:56;94632.03;;;9.99;33.38
57248;BME280;55809;46.618;10.764;2023-02-14T09:06:26;94554.34;;;9.69;33.93
57248;BME280;55809;46.618;10.764;2023-02-14T09:08:54;94571.13;;;9.98;33.37
57248;BME280;55809;46.618;10.764;2023-02-14T09:11:22;94551.94;;;9.83;33.35
57248;BME280;55809;46.618;10.764;2023-02-14T09:13:50;94562.97;;;10.14;33.68
57248;BME280;55809;46.618;10.764;2023-02-14T09:16:19;94541.03;;;10.15;33.19
57248;BME280;55809;46.618;10.764;2023-02-14T09:18:47;94539.94;;;10.20;32.68
57248;BME280;55809;46.618;10.764;2023-02-14T09:21:17;94516.47;;;10.01;33.07
57248;BME280;55809;46.618;10.764;2023-02-14T09:23:51;94612.75;;;10.74;33.41
57248;BME280;55809;46.618;10.764;2023-02-14T09:26:18;94554.09;;;10.32;33.40
57248;BME280;55809;46.618;10.764;2023-02-14T09:28:46;94562.63;;;10.54;32.75
57248;BME280;55809;46.618;10.764;2023-02-14T09:31:16;94551.03;;;10.53;31.95
57248;BME280;55809;46.618;10.764;2023-02-14T09:33:46;94579.81;;;10.46;31.43
57248;BME280;55809;46.618;10.764;2023-02-14T09:36:24;94493.38;;;10.03;32.22
57248;BME280;55809;46.618;10.764;2023-02-14T09:38:53;94525.28;;;10.37;32.16
57248;BME280;55809;46.618;10.764;2023-02-14T09:44:32;94605.56;;;11.28;31.63
57248;BME280;55809;46.618;10.764;2023-02-14T09:47:08;94555.25;;;11.20;31.04
57248;BME280;55809;46.618;10.764;2023-02-14T09:49:39;94535.53;;;11.16;31.55
57248;BME280;55809;46.618;10.764;2023-02-14T09:52:13;94537.03;;;11.40;30.69
57248;BME280;55809;46.618;10.764;2023-02-14T09:55:16;94547.78;;;11.36;31.12
57248;BME280;55809;46.618;10.764;2023-02-14T09:58:05;94518.50;;;11.15;30.42
57248;BME280;55809;46.618;10.764;2023-02-14T10:00:39;94505.56;;;11.01;31.52
57248;BME280;55809;46.618;10.764;2023-02-14T10:06:28;94491.91;;;11.44;30.48
57248;BME280;55809;46.618;10.764;2023-02-14T10:09:11;94543.50;;;11.85;29.32
57248;BME280;55809;46.618;10.764;2023-02-14T10:11:45;94524.09;;;11.53;29.78
57248;BME280;55809;46.618;10.764;2023-02-14T10:14:18;94516.59;;;11.69;29.96
57248;BME280;55809;46.618;10.764;2023-02-14T10:17:06;94470.94;;;11.37;28.88
57248;BME280;55809;46.618;10.764;2023-02-14T10:19:42;94455.41;;;11.31;29.10
57248;BME280;55809;46.618;10.764;2023-02-14T10:22:16;94512.78;;;11.73;28.75
57248;BME280;55809;46.618;10.764;2023-02-14T10:24:53;94489.19;;;11.74;29.95
57248;BME280;55809;46.618;10.764;2023-02-14T10:27:40;94453.50;;;11.61;28.43
57248;BME280;55809;46.618;10.764;2023-02-14T10:30:23;94450.94;;;11.42;29.19
57248;BME280;55809;46.618;10.764;2023-02-14T10:33:10;94499.06;;;11.86;29.11
57248;BME280;55809;46.618;10.764;2023-02-14T10:35:53;94446.06;;;11.55;28.21
57248;BME280;55809;46.618;10.764;2023-02-14T10:38:43;94462.94;;;11.74;28.99
57248;BME280;55809;46.618;10.764;2023-02-14T10:41:48;94529.44;;;12.39;28.73
57248;BME280;55809;46.618;10.764;2023-02-14T10:44:57;94529.44;;;12.39;28.73
57248;BME280;55809;46.618;10.764;2023-02-14T10:48:00;94504.19;;;12.65;26.83
57248;BME280;55809;46.618;10.764;2023-02-14T10:50:43;94444.69;;;12.35;27.57
57248;BME280;55809;46.618;10.764;2023-02-14T10:53:25;94466.28;;;12.69;27.52
57248;BME280;55809;46.618;10.764;2023-02-14T10:56:10;94404.22;;;12.09;27.11
57248;BME280;55809;46.618;10.764;2023-02-14T10:59:13;94394.22;;;12.16;27.82
57248;BME280;55809;46.618;10.764;2023-02-14T11:05:56;94446.56;;;12.72;27.27
57248;BME280;55809;46.618;10.764;2023-02-14T11:09:16;94384.31;;;12.31;27.84
57248;BME280;55809;46.618;10.764;2023-02-14T11:11:54;94464.97;;;12.97;27.33
57248;BME280;55809;46.618;10.764;2023-02-14T11:17:37;94375.50;;;12.38;26.24
57248;BME280;55809;46.618;10.764;2023-02-14T11:23:52;94357.78;;;12.48;26.12
57248;BME280;55809;46.618;10.764;2023-02-14T11:27:03;94442.69;;;13.21;26.12
57248;BME280;55809;46.618;10.764;2023-02-14T11:29:44;64767.38;;;-145.41;100.00
57248;BME280;55809;46.618;10.764;2023-02-14T11:32:14;94442.69;;;13.21;26.12
57248;BME280;55809;46.618;10.764;2023-02-14T11:34:45;94431.88;;;13.25;26.25
57248;BME280;55809;46.618;10.764;2023-02-14T11:37:24;94389.53;;;13.09;25.93
57248;BME280;55809;46.618;10.764;2023-02-14T11:39:55;94381.78;;;13.04;25.97
57248;BME280;55809;46.618;10.764;2023-02-14T11:42:37;94380.44;;;12.77;26.67
57248;BME280;55809;46.618;10.764;2023-02-14T11:45:08;94366.22;;;12.94;26.33
57248;BME280;55809;46.618;10.764;2023-02-14T11:48:06;94353.41;;;12.87;26.80
57248;BME280;55809;46.618;10.764;2023-02-14T11:50:37;94340.22;;;12.86;26.23
57248;BME280;55809;46.618;10.764;2023-02-14T11:53:09;94365.59;;;13.19;25.65
57248;BME280;55809;46.618;10.764;2023-02-14T11:55:39;94393.59;;;13.33;26.39
57248;BME280;55809;46.618;10.764;2023-02-14T11:58:07;94347.75;;;13.10;26.83
57248;BME280;55809;46.618;10.764;2023-02-14T12:00:52;94349.69;;;13.10;25.93
57248;BME280;55809;46.618;10.764;2023-02-14T12:03:19;94324.41;;;12.91;26.43
57248;BME280;55809;46.618;10.764;2023-02-14T12:05:49;94384.28;;;13.31;26.03
57248;BME280;55809;46.618;10.764;2023-02-14T12:08:23;94341.88;;;13.01;26.12
57248;BME280;55809;46.618;10.764;2023-02-14T12:11:01;94323.66;;;12.98;26.30
57248;BME280;55809;46.618;10.764;2023-02-14T12:13:29;94291.81;;;12.81;26.09
57248;BME280;55809;46.618;10.764;2023-02-14T12:15:57;94357.56;;;13.33;25.01
57248;BME280;55809;46.618;10.764;2023-02-14T12:18:37;94355.22;;;13.35;25.36
57248;BME280;55809;46.618;10.764;2023-02-14T12:24:11;94300.59;;;13.29;24.88
57248;BME280;55809;46.618;10.764;2023-02-14T12:26:44;94295.09;;;13.22;24.69
57248;BME280;55809;46.618;10.764;2023-02-14T12:29:20;94279.56;;;13.08;24.88
57248;BME280;55809;46.618;10.764;2023-02-14T12:31:51;94286.19;;;13.22;25.01
57248;BME280;55809;46.618;10.764;2023-02-14T12:34:19;94307.94;;;13.29;25.41
57248;BME280;55809;46.618;10.764;2023-02-14T12:37:00;94256.22;;;12.89;24.63
57248;BME280;55809;46.618;10.764;2023-02-14T12:39:37;94247.00;;;13.01;24.11
57248;BME280;55809;46.618;10.764;2023-02-14T12:42:21;94312.88;;;13.12;25.04
57248;BME280;55809;46.618;10.764;2023-02-14T12:44:56;94240.34;;;12.84;24.82
57248;BME280;55809;46.618;10.764;2023-02-14T12:47:31;94258.56;;;12.87;24.91
57248;BME280;55809;46.618;10.764;2023-02-14T12:50:17;94235.72;;;12.85;24.97
57248;BME280;55809;46.618;10.764;2023-02-14T12:53:20;94293.13;;;13.12;24.14
57248;BME280;55809;46.618;10.764;2023-02-14T12:55:58;94292.00;;;13.13;24.43
57248;BME280;55809;46.618;10.764;2023-02-14T12:58:39;94290.03;;;13.10;25.78
57248;BME280;55809;46.618;10.764;2023-02-14T13:01:20;94260.50;;;12.83;25.96
57248;BME280;55809;46.618;10.764;2023-02-14T13:04:04;94230.97;;;12.60;26.09
57248;BME280;55809;46.618;10.764;2023-02-14T13:06:35;94213.84;;;12.49;26.20
57248;BME280;55809;46.618;10.764;2023-02-14T13:09:19;94264.69;;;12.70;26.55
57248;BME280;55809;46.618;10.764;2023-02-14T13:12:00;94202.91;;;12.28;26.11
57248;BME280;55809;46.618;10.764;2023-02-14T13:14:58;94216.03;;;12.22;26.37
57248;BME280;55809;46.618;10.764;2023-02-14T13:17:33;94216.38;;;12.17;26.32
57248;BME280;55809;46.618;10.764;2023-02-14T13:20:17;94249.31;;;12.30;26.89
57248;BME280;55809;46.618;10.764;2023-02-14T13:22:51;94248.03;;;12.09;27.16
57248;BME280;55809;46.618;10.764;2023-02-14T13:25:24;94193.09;;;11.61;27.20
57248;BME280;55809;46.618;10.764;2023-02-14T13:27:56;94223.72;;;11.68;27.49
57248;BME280;55809;46.618;10.764;2023-02-14T13:30:27;94216.31;;;11.62;27.69
57248;BME280;55809;46.618;10.764;2023-02-14T13:32:59;94237.69;;;11.78;26.92
57248;BME280;55809;46.618;10.764;2023-02-14T13:35:29;94206.88;;;11.45;27.57
57248;BME280;55809;46.618;10.764;2023-02-14T13:38:01;94179.66;;;11.23;28.66
57248;BME280;55809;46.618;10.764;2023-02-14T13:40:30;94225.88;;;11.52;27.79
57248;BME280;55809;46.618;10.764;2023-02-14T13:42:58;94226.56;;;11.42;28.79
57248;BME280;55809;46.618;10.764;2023-02-14T13:45:52;94228.34;;;11.31;29.05
57248;BME280;55809;46.618;10.764;2023-02-14T13:48:21;94226.22;;;11.10;29.68
57248;BME280;55809;46.618;10.764;2023-02-14T13:50:51;94220.88;;;11.17;29.46
57248;BME280;55809;46.618;10.764;2023-02-14T13:53:37;94179.28;;;10.88;29.05
57248;BME280;55809;46.618;10.764;2023-02-14T13:56:30;94213.34;;;10.96;29.37
57248;BME280;55809;46.618;10.764;2023-02-14T13:59:00;94216.78;;;10.93;28.96
57248;BME280;55809;46.618;10.764;2023-02-14T14:01:34;94155.00;;;10.57;28.67
57248;BME280;55809;46.618;10.764;2023-02-14T14:04:08;94184.88;;;10.72;29.53
57248;BME280;55809;46.618;10.764;2023-02-14T14:07:19;94193.47;;;10.81;28.78
57248;BME280;55809;46.618;10.764;2023-02-14T14:10:01;94162.94;;;10.43;30.09
57248;BME280;55809;46.618;10.764;2023-02-14T14:12:42;94209.47;;;10.63;30.79
57248;BME280;55809;46.618;10.764;2023-02-14T14:15:15;94199.03;;;10.62;30.41
57248;BME280;55809;46.618;10.764;2023-02-14T14:17:46;94165.19;;;10.38;31.50
57248;BME280;55809;46.618;10.764;2023-02-14T14:20:39;94174.44;;;10.37;31.47
57248;BME280;55809;46.618;10.764;2023-02-14T14:23:33;94160.06;;;10.29;31.81
57248;BME280;55809;46.618;10.764;2023-02-14T14:26:03;94165.81;;;10.27;32.15
57248;BME280;55809;46.618;10.764;2023-02-14T14:28:49;94194.59;;;10.46;31.88
57248;BME280;55809;46.618;10.764;2023-02-14T14:31:19;94144.38;;;10.12;31.86
57248;BME280;55809;46.618;10.764;2023-02-14T14:33:56;94142.84;;;10.10;32.77
57248;BME280;55809;46.618;10.764;2023-02-14T14:36:24;94192.13;;;10.34;32.43
57248;BME280;55809;46.618;10.764;2023-02-14T14:38:51;94138.75;;;9.94;32.07
57248;BME280;55809;46.618;10.764;2023-02-14T14:41:19;94188.47;;;10.23;31.76
57248;BME280;55809;46.618;10.764;2023-02-14T14:43:53;94140.59;;;9.90;32.28
57248;BME280;55809;46.618;10.764;2023-02-14T14:46:21;94180.22;;;10.12;31.84
57248;BME280;55809;46.618;10.764;2023-02-14T14:48:52;94102.34;;;9.54;31.95
57248;BME280;55809;46.618;10.764;2023-02-14T14:51:25;94181.59;;;9.99;32.43
57248;BME280;55809;46.618;10.764;2023-02-14T14:53:55;94167.72;;;9.74;32.90